This is the latest recevied weather packets stored in our database for station/object N0OQA. If no packets are shown the sender has not sent any weather packets the latest 10 day(s).
| Time | Temp. | Humidity | Pressure | Rain* | Wind** | Luminosity | Snow |
|---|---|---|---|---|---|---|---|
| 1777782441 | 15° C | 46% | 1009.4 hPa | 0 mm | - | - | - |
| 1777782141 | 15° C | 46% | 1009.4 hPa | 0 mm | - | - | - |
| 1777781841 | 15° C | 46% | 1009.4 hPa | 0 mm | - | - | - |
| 1777781240 | 15° C | 46% | 1009.6 hPa | 0 mm | - | - | - |
| 1777780639 | 15.56° C | 46% | 1009.8 hPa | 0 mm | - | - | - |
| 1777780339 | 15.56° C | 46% | 1009.9 hPa | 0 mm | - | - | - |
| 1777779438 | 15.56° C | 46% | 1010 hPa | 0 mm | - | - | - |
| 1777778537 | 15.56° C | 46% | 1010.4 hPa | 0 mm | - | - | - |
| 1777777937 | 15.56° C | 46% | 1010.6 hPa | 0 mm | - | - | - |
| 1777777637 | 15.56° C | 46% | 1010.6 hPa | 0 mm | - | - | - |
| 1777776736 | 15.56° C | 46% | 1010.9 hPa | 0 mm | - | - | - |
| 1777776135 | 15.56° C | 45% | 1010.9 hPa | 0 mm | - | - | - |
| 1777775835 | 15.56° C | 45% | 1011 hPa | 0 mm | - | - | - |
| 1777775535 | 15.56° C | 45% | 1011 hPa | 0 mm | - | - | - |
| 1777775234 | 16.11° C | 45% | 1011.2 hPa | 0 mm | - | - | - |
| 1777774934 | 16.11° C | 44% | 1011.2 hPa | 0 mm | - | - | - |
| 1777774634 | 16.11° C | 44% | 1011.4 hPa | 0 mm | - | - | - |
| 1777774033 | 16.11° C | 43% | 1011.6 hPa | 0 mm | - | - | - |
| 1777773733 | 16.11° C | 42% | 1011.7 hPa | 0 mm | - | - | - |
| 1777772532 | 16.67° C | 40% | 1011.8 hPa | 0 mm | - | - | - |
| 1777751512 | 17.78° C | 34% | 1015.3 hPa | 0 mm | - | - | - |
| 1777747908 | 17.22° C | 34% | 1016.7 hPa | 0 mm | - | - | - |
| 1777726588 | 4.44° C | 74% | 1020.7 hPa | 0 mm | - | - | - |
| 1777726287 | 3.89° C | 76% | 1020.8 hPa | 0 mm | - | - | - |
| 1777724784 | 2.22° C | 82% | 1020.6 hPa | 0 mm | - | - | - |
* Rain since midnight (hover to see other rain measurements)
** Current wind speed in m/s (hover to see current wind gust speed)